메인 페이지
METAR-TAF:

METAR-TAF

공항 :

비스뷔, 고틀란드 섬, 스웨덴

위도: 57-40N, 경도: 018-21E, 고도: 51m

현재 날씨관측

예보는 16분 전, 12:20시(UTC)에 발표되었습니다.
서북서9kt풍과 북북서풍을 오가는
온도 19°C
습도 78%
기압 1011 hPa
시정 10km 이상
고도 1200ft 상공 구름 많음

METAR: ESSV 251220Z 30009KT 270V340 9999 BKN012 19/15 Q1011

시각: 14:36 (12:36 UTC)

예보

예보는 1 시간 6분 전, 11:30시(UTC)에 발표되었습니다.
예보 대상 시간: 25일 12시부터 25일 20시까지 (UTC)
10kt
시정 10km 이상
고도 900ft 상공 구름 조금
일시적
25일 12시부터 25일 14시까지 (UTC)
고도 900ft 상공 구름 많음
전환 중
25일 18시부터 25일 20시까지 (UTC)
남남서5kt

TAF: ESSV 251130Z 2512/2520 28010KT 9999 FEW009 TEMPO 2512/2514 BKN009 BECMG 2518/2520 20005KT

4,000개 이상의 공항 관측 자료 및 예보 (METAR 및 TAF 보고).

지도상에서 검색 가능한 기상관측소가 노란 점과 빨간 점으로 표시되어 있습니다.

기상관측소 명을 보려면 표시 위로 마우스를 이동하세요.

날씨 관측과 예보를 보려면 클릭하세요.

지도 변경 : 확대하려면 엑스 표시가 있는 녹색 버튼, 축소하려면 빼기 표시가 있는 녹색 버튼, 다음 페이지의 지도를 보려면 녹색 화살표를 클릭하세요.


METAR-TAF: